Welcome to the New NWS' Forecast!
Most changes are behind the scenes, but click here for differences you might notice.

Terminal Aerodrome Forecast (TAF)

Issued by National Weather Service (NWS)

                            
000
FTUS42 KMFL 152112 AAA
TAFMIA
TAF AMD
KMIA 152112Z 1521/1624 10014KT P6SM SCT025
     FM160600 10009KT P6SM FEW025
     FM161500 10015KT P6SM SCT025=